createdAt,value
2022-12-23T00:02:57.819Z,11.18
2022-12-23T00:08:00.869Z,11.13
2022-12-23T00:13:05.350Z,10.95
2022-12-23T00:18:08.250Z,10.87
2022-12-23T00:23:11.087Z,10.81
2022-12-23T00:28:17.626Z,10.80
2022-12-23T00:33:21.659Z,10.80
2022-12-23T00:38:24.681Z,10.83
2022-12-23T00:43:29.197Z,10.62
2022-12-23T00:48:32.823Z,10.60
2022-12-23T00:53:35.704Z,10.53
2022-12-23T00:58:40.203Z,10.45
2022-12-23T01:03:43.099Z,10.59
2022-12-23T01:08:46.002Z,10.55
2022-12-23T01:13:51.561Z,10.36
2022-12-23T01:18:54.484Z,10.26
2022-12-23T01:23:57.400Z,10.23
2022-12-23T01:29:02.196Z,10.79
2022-12-23T01:34:05.182Z,10.40
2022-12-23T01:39:08.122Z,10.04
2022-12-23T01:44:29.315Z,9.94
2022-12-23T01:49:33.837Z,9.90
2022-12-23T01:54:37.721Z,9.87
2022-12-23T01:59:41.339Z,9.88
2022-12-23T02:04:47.137Z,9.90
2022-12-23T02:09:50.002Z,9.86
2022-12-23T02:15:02.618Z,9.63
2022-12-23T02:20:19.621Z,9.57
2022-12-23T02:25:36.870Z,9.44
2022-12-23T02:30:46.493Z,9.47
2022-12-23T02:35:55.819Z,9.59
2022-12-23T02:41:02.749Z,9.51
2022-12-23T02:46:10.021Z,9.56
2022-12-23T02:51:14.911Z,9.59
2022-12-23T02:56:19.571Z,9.62
2022-12-23T03:01:25.334Z,9.64
2022-12-23T03:06:30.125Z,9.58
2022-12-23T03:11:37.325Z,9.53
2022-12-23T03:16:46.619Z,9.39
2022-12-23T03:22:00.533Z,9.29
2022-12-23T03:27:05.875Z,9.41
2022-12-23T03:32:11.913Z,9.39
2022-12-23T03:37:16.721Z,9.49
2022-12-23T03:42:21.853Z,9.52
2022-12-23T03:47:28.822Z,9.57
2022-12-23T03:52:33.676Z,9.65
2022-12-23T03:57:41.251Z,9.57
2022-12-23T04:02:48.318Z,9.47
2022-12-23T04:07:53.993Z,9.44
2022-12-23T04:12:56.946Z,9.55
2022-12-23T04:18:01.495Z,9.55
2022-12-23T04:23:04.617Z,9.47
2022-12-23T04:28:07.584Z,9.48
2022-12-23T04:33:12.975Z,9.49
2022-12-23T04:38:15.932Z,9.45
2022-12-23T04:43:19.307Z,9.62
2022-12-23T04:48:23.861Z,10.02
2022-12-23T04:53:26.939Z,10.04
2022-12-23T04:58:29.816Z,9.85
2022-12-23T05:03:34.411Z,9.74
2022-12-23T05:08:37.374Z,9.60
2022-12-23T05:13:40.230Z,9.61
2022-12-23T05:18:44.781Z,9.64
2022-12-23T05:23:47.689Z,9.57
2022-12-23T05:28:50.622Z,9.52
2022-12-23T05:33:56.646Z,9.51
2022-12-23T05:39:01.299Z,9.40
2022-12-23T05:44:04.252Z,9.38
2022-12-23T05:49:08.784Z,9.30
2022-12-23T05:54:11.682Z,9.21
2022-12-23T05:59:14.520Z,9.01
2022-12-23T06:04:19.157Z,9.08
2022-12-23T06:09:22.077Z,9.18
2022-12-23T06:14:28.772Z,9.19
2022-12-23T06:19:33.983Z,9.13
2022-12-23T06:24:36.848Z,8.99
2022-12-23T06:29:39.745Z,8.93
2022-12-23T06:34:44.231Z,8.92
2022-12-23T06:39:47.132Z,8.93
2022-12-23T06:44:49.996Z,8.87
2022-12-23T06:49:54.517Z,8.79
2022-12-23T06:54:59.374Z,8.54
2022-12-23T07:00:02.260Z,8.33
2022-12-23T07:05:07.047Z,8.33
2022-12-23T07:10:10.421Z,8.35
2022-12-23T07:15:13.261Z,8.42
2022-12-23T07:20:17.897Z,8.40
2022-12-23T07:25:20.783Z,8.49
2022-12-23T07:30:23.943Z,8.54
2022-12-23T07:35:28.560Z,8.67
2022-12-23T07:40:31.500Z,8.58
2022-12-23T07:45:34.396Z,8.75
2022-12-23T07:50:39.951Z,8.70
2022-12-23T07:55:43.949Z,8.64
2022-12-23T08:00:46.808Z,8.71
2022-12-23T08:05:59.305Z,8.78
2022-12-23T08:11:03.175Z,8.80
2022-12-23T08:16:06.815Z,8.75
2022-12-23T08:21:14.006Z,8.73
2022-12-23T08:26:17.675Z,8.88
2022-12-23T08:31:21.544Z,8.98
2022-12-23T08:36:27.085Z,8.98
2022-12-23T08:41:30.592Z,8.93
2022-12-23T08:46:33.663Z,8.91
2022-12-23T08:51:38.736Z,8.88
2022-12-23T08:56:42.310Z,8.85
2022-12-23T09:01:45.217Z,8.82
2022-12-23T09:06:49.791Z,8.71
2022-12-23T09:11:52.627Z,8.73
2022-12-23T09:16:55.493Z,8.76
2022-12-23T09:21:59.968Z,8.96
2022-12-23T09:27:03.033Z,9.02
2022-12-23T09:32:06.105Z,8.94
2022-12-23T09:37:11.647Z,8.86
2022-12-23T09:42:26.171Z,8.72
2022-12-23T09:47:30.420Z,8.56
2022-12-23T09:52:38.523Z,8.52
2022-12-23T09:57:45.240Z,8.49
2022-12-23T10:02:56.734Z,8.56
2022-12-23T10:08:04.632Z,8.65
2022-12-23T10:13:12.291Z,8.57
2022-12-23T10:18:19.927Z,8.62
2022-12-23T10:23:27.942Z,8.68
2022-12-23T10:28:30.809Z,8.60
2022-12-23T10:33:38.148Z,8.57
2022-12-23T10:38:48.593Z,8.71
2022-12-23T10:44:13.874Z,8.68
2022-12-23T10:49:20.767Z,8.60
2022-12-23T10:54:28.094Z,8.48
2022-12-23T10:59:32.421Z,8.57
2022-12-23T11:04:36.337Z,8.45
2022-12-23T11:09:43.325Z,8.50
2022-12-23T11:14:52.228Z,8.52
2022-12-23T11:20:07.637Z,8.61
2022-12-23T11:25:26.619Z,8.67
2022-12-23T11:30:29.799Z,8.64
2022-12-23T11:35:34.055Z,8.61
2022-12-23T11:40:38.945Z,8.66
2022-12-23T11:45:41.835Z,8.56
2022-12-23T11:50:44.737Z,8.62
2022-12-23T11:55:57.618Z,8.69
2022-12-23T12:01:00.990Z,8.64
2022-12-23T12:06:04.701Z,8.75
2022-12-23T12:11:14.097Z,8.65
2022-12-23T12:16:22.766Z,8.64
2022-12-23T12:21:26.904Z,8.68
2022-12-23T12:26:32.461Z,8.68
2022-12-23T12:31:38.561Z,8.54
2022-12-23T12:36:44.930Z,8.61
2022-12-23T12:41:50.961Z,8.56
2022-12-23T12:46:58.026Z,8.55
2022-12-23T12:52:05.626Z,8.67
2022-12-23T12:57:14.741Z,8.74
2022-12-23T13:02:28.520Z,8.77
2022-12-23T13:07:36.311Z,8.69
2022-12-23T13:12:46.877Z,8.69
2022-12-23T13:18:01.955Z,8.68
2022-12-23T13:23:41.686Z,8.59
2022-12-23T13:28:44.625Z,8.61
2022-12-23T13:33:51.059Z,8.59
2022-12-23T13:39:02.797Z,8.60
2022-12-23T13:44:09.496Z,8.60
2022-12-23T13:49:17.789Z,8.56
2022-12-23T13:54:28.590Z,8.60
2022-12-23T13:59:41.336Z,8.58
2022-12-23T14:04:58.757Z,8.65
2022-12-23T14:10:11.909Z,8.71
2022-12-23T14:15:27.197Z,8.70
2022-12-23T14:20:37.463Z,8.60
2022-12-23T14:25:53.268Z,8.60
2022-12-23T14:30:58.619Z,8.59
2022-12-23T14:36:15.089Z,8.65
2022-12-23T14:41:38.543Z,8.70
2022-12-23T14:46:55.935Z,8.71
2022-12-23T14:52:21.949Z,8.70
2022-12-23T14:57:28.366Z,8.66
2022-12-23T15:02:33.251Z,8.69
2022-12-23T15:07:38.764Z,8.63
2022-12-23T15:12:42.834Z,8.60
2022-12-23T15:17:45.743Z,8.61
2022-12-23T15:22:50.710Z,8.65
2022-12-23T15:28:00.964Z,8.65
2022-12-23T15:33:15.990Z,8.71
2022-12-23T15:38:31.408Z,8.74
2022-12-23T15:43:40.967Z,8.81
2022-12-23T15:48:44.510Z,8.87
2022-12-23T15:53:50.044Z,8.90
2022-12-23T15:58:53.470Z,9.02
2022-12-23T16:03:57.612Z,9.06
2022-12-23T16:09:03.031Z,9.09
2022-12-23T16:14:20.300Z,9.11
2022-12-23T16:19:41.788Z,9.21
2022-12-23T16:24:47.586Z,9.34
2022-12-23T16:29:50.467Z,9.39
2022-12-23T16:34:53.299Z,9.39
2022-12-23T16:39:58.165Z,9.49
2022-12-23T16:45:01.300Z,9.59
2022-12-23T16:50:04.379Z,9.58
2022-12-23T16:55:17.717Z,9.52
2022-12-23T17:00:20.802Z,10.62
2022-12-23T17:05:24.159Z,10.86
2022-12-23T17:10:28.876Z,11.08
2022-12-23T17:15:32.010Z,10.57
2022-12-23T17:20:34.911Z,10.39
2022-12-23T17:25:39.422Z,10.39
2022-12-23T17:30:42.310Z,10.47
2022-12-23T17:35:45.212Z,10.57
2022-12-23T17:40:50.428Z,10.59
2022-12-23T17:45:53.397Z,10.61
2022-12-23T17:50:56.306Z,10.72
2022-12-23T17:56:00.813Z,10.88
2022-12-23T18:01:03.759Z,11.01
2022-12-23T18:06:09.089Z,10.89
2022-12-23T18:11:17.960Z,10.58
2022-12-23T18:16:20.911Z,10.93
2022-12-23T18:21:25.512Z,11.06
2022-12-23T18:26:30.776Z,11.35
2022-12-23T18:31:33.796Z,11.32
2022-12-23T18:36:36.777Z,11.19
2022-12-23T18:41:41.374Z,11.27
2022-12-23T18:46:48.325Z,11.42
2022-12-23T18:51:51.317Z,11.48
2022-12-23T18:56:55.905Z,11.64
2022-12-23T19:01:59.290Z,11.81
2022-12-23T19:07:02.275Z,12.01
2022-12-23T19:12:07.083Z,11.98
2022-12-23T19:17:09.981Z,12.13
2022-12-23T19:22:12.850Z,12.42
2022-12-23T19:27:17.347Z,12.54
2022-12-23T19:32:20.247Z,12.67
2022-12-23T19:37:23.163Z,12.72
2022-12-23T19:42:27.660Z,12.79
2022-12-23T19:47:30.547Z,13.00
2022-12-23T19:52:33.395Z,13.08
2022-12-23T19:57:37.927Z,13.39
2022-12-23T20:02:40.803Z,13.49
2022-12-23T20:07:44.654Z,13.60
2022-12-23T20:12:49.183Z,13.47
2022-12-23T20:17:52.065Z,13.55
2022-12-23T20:22:54.949Z,13.59
2022-12-23T20:27:59.467Z,13.70
2022-12-23T20:33:02.356Z,13.63
2022-12-23T20:38:05.248Z,13.61
2022-12-23T20:43:15.037Z,13.75
2022-12-23T20:48:18.459Z,14.00
2022-12-23T20:53:21.346Z,14.22
2022-12-23T20:58:25.859Z,14.03
2022-12-23T21:03:28.767Z,13.95
2022-12-23T21:08:31.715Z,13.97
2022-12-23T21:13:36.646Z,13.72
2022-12-23T21:18:40.786Z,13.60
2022-12-23T21:23:43.674Z,13.58
2022-12-23T21:28:48.912Z,13.66
2022-12-23T21:33:52.169Z,13.57
2022-12-23T21:38:55.179Z,13.71
2022-12-23T21:44:00.193Z,13.60
2022-12-23T21:49:03.348Z,13.66
2022-12-23T21:54:06.230Z,13.49
2022-12-23T21:59:12.218Z,13.58
2022-12-23T22:04:15.094Z,13.61
2022-12-23T22:09:19.064Z,13.72
2022-12-23T22:14:23.571Z,13.83
2022-12-23T22:19:26.459Z,13.94
2022-12-23T22:24:29.363Z,14.04
2022-12-23T22:29:34.937Z,13.91
2022-12-23T22:34:37.822Z,13.89
2022-12-23T22:39:40.754Z,14.06
2022-12-23T22:44:45.270Z,14.12
2022-12-23T22:49:48.120Z,14.20
2022-12-23T22:54:51.496Z,14.17
2022-12-23T22:59:56.028Z,14.12
2022-12-23T23:04:58.915Z,13.93
2022-12-23T23:10:01.891Z,13.84
2022-12-23T23:15:09.963Z,13.89
2022-12-23T23:20:13.020Z,13.92
2022-12-23T23:25:15.939Z,13.95
2022-12-23T23:30:20.610Z,13.88
2022-12-23T23:35:23.499Z,13.96
2022-12-23T23:40:26.576Z,13.82
2022-12-23T23:45:31.166Z,13.74
2022-12-23T23:50:34.301Z,13.68
2022-12-23T23:55:37.148Z,13.50
